Time;durP1;ratioP1;P1;durP2;ratioP2;P2;SDS_P1;SDS_P2;PMS_P1;PMS_P2;Temp;Humidity;BMP_temperature;BMP_pressure;BME280_temperature;BME280_humidity;BME280_pressure;Samples;Min_cycle;Max_cycle;Signal;HPM_P1;HPM_P2
2023/03/08 00:00:13;;;;;;;12.73;8.97;;;4.00;99.90;;;;;;4955359;29;20446;-80
2023/03/08 00:02:40;;;;;;;14.83;8.83;;;3.90;99.90;;;;;;4951396;29;20524;-79
2023/03/08 00:05:07;;;;;;;14.63;9.30;;;3.90;99.90;;;;;;4953607;29;20467;-80
2023/03/08 00:07:34;;;;;;;13.97;9.20;;;3.90;99.90;;;;;;4953947;29;20472;-80
2023/03/08 00:10:03;;;;;;;15.30;9.30;;;3.90;99.90;;;;;;4957709;29;20454;-80
2023/03/08 00:12:30;;;;;;;13.87;8.80;;;3.90;99.90;;;;;;4959368;29;20466;-79
2023/03/08 00:14:57;;;;;;;17.07;10.07;;;4.00;99.90;;;;;;4953324;29;20466;-75
2023/03/08 00:17:24;;;;;;;15.20;9.17;;;4.00;99.90;;;;;;5100372;23;20502;-79
2023/03/08 04:21:24;;;;;;;11.80;7.70;;;2.30;99.90;;;;;;5714671;23;20464;-80
2023/03/08 04:36:49;;;;;;;14.50;7.60;;;2.30;99.90;;;;;;5499687;23;20512;-84
2023/03/08 04:39:16;;;;;;;12.67;7.97;;;2.20;99.90;;;;;;4952410;29;20532;-86
2023/03/08 04:41:43;;;;;;;23.57;7.73;;;2.30;99.90;;;;;;4939073;29;20519;-87
2023/03/08 04:44:10;;;;;;;17.27;9.23;;;2.00;99.90;;;;;;4935456;29;20461;-88
2023/03/08 04:46:37;;;;;;;19.60;10.27;;;2.10;99.90;;;;;;4935487;29;20456;-88
2023/03/08 04:49:04;;;;;;;15.60;8.50;;;2.10;99.90;;;;;;4934214;29;20468;-87
2023/03/08 04:51:30;;;;;;;19.00;9.60;;;2.10;99.90;;;;;;4934794;29;20455;-88
2023/03/08 04:53:59;;;;;;;16.50;9.73;;;2.10;99.90;;;;;;4934955;29;20443;-87
2023/03/08 04:56:25;;;;;;;16.00;8.80;;;2.00;99.90;;;;;;4934472;29;20693;-88
2023/03/08 04:58:52;;;;;;;16.87;10.27;;;2.10;99.90;;;;;;4934254;29;20507;-88
2023/03/08 05:01:21;;;;;;;13.80;10.13;;;2.10;99.90;;;;;;4934006;29;20477;-88
2023/03/08 05:03:49;;;;;;;13.00;8.33;;;2.10;99.90;;;;;;4932808;29;20566;-86
2023/03/08 05:06:16;;;;;;;18.50;8.87;;;2.10;99.90;;;;;;4935834;29;20462;-89
2023/03/08 05:08:43;;;;;;;12.90;8.03;;;2.10;99.90;;;;;;4934041;29;20861;-88
2023/03/08 05:11:17;;;;;;;14.50;9.47;;;2.20;99.90;;;;;;4933426;29;20455;-85
2023/03/08 05:13:43;;;;;;;19.47;10.17;;;2.10;99.90;;;;;;4934113;29;20453;-89
2023/03/08 05:16:10;;;;;;;14.00;8.80;;;2.20;99.90;;;;;;4936428;29;20804;-88
2023/03/08 05:18:37;;;;;;;13.67;11.10;;;2.10;99.90;;;;;;4936895;29;20491;-88
2023/03/08 05:21:06;;;;;;;17.70;9.53;;;2.20;99.90;;;;;;4947474;29;20483;-88
2023/03/08 05:23:33;;;;;;;16.37;7.97;;;2.20;99.90;;;;;;4954052;29;20550;-88
2023/03/08 05:26:02;;;;;;;13.40;8.47;;;2.30;99.90;;;;;;4960890;29;20465;-88
2023/03/08 05:28:32;;;;;;;15.00;8.30;;;2.30;99.90;;;;;;4958102;29;20446;-89
2023/03/08 05:31:02;;;;;;;14.50;8.53;;;2.30;99.90;;;;;;4955110;29;20478;-90
2023/03/08 05:33:29;;;;;;;16.63;10.00;;;2.20;99.90;;;;;;4955390;29;20454;-89
2023/03/08 05:35:56;;;;;;;11.73;8.17;;;2.20;99.90;;;;;;4955324;29;20542;-88
2023/03/08 05:38:24;;;;;;;14.77;9.57;;;2.40;99.90;;;;;;4952033;29;20494;-86
2023/03/08 05:40:52;;;;;;;15.17;9.67;;;2.30;99.90;;;;;;4944179;29;20455;-87
2023/03/08 05:43:19;;;;;;;15.47;10.63;;;2.20;99.90;;;;;;4935768;29;20435;-87
2023/03/08 05:45:57;;;;;;;16.97;10.00;;;2.40;99.90;;;;;;4940140;29;20456;-91
2023/03/08 05:48:24;;;;;;;21.20;9.67;;;2.40;99.90;;;;;;4937982;29;20444;-83
2023/03/08 06:14:10;;;;;;;19.77;10.50;;;2.30;99.90;;;;;;4907912;23;20511;-81
2023/03/08 06:19:12;;;;;;;24.53;10.73;;;2.40;99.90;;;;;;5546757;23;20600;-76
2023/03/08 06:21:39;;;;;;;17.07;10.20;;;2.60;99.90;;;;;;5061796;23;20486;-82
2023/03/08 06:24:06;;;;;;;21.80;11.13;;;2.50;99.90;;;;;;4933103;29;20448;-82
2023/03/08 06:26:33;;;;;;;18.97;12.20;;;2.70;99.90;;;;;;4935315;29;20530;-82
2023/03/08 06:29:00;;;;;;;23.10;12.63;;;2.70;99.90;;;;;;4926656;29;20555;-78
2023/03/08 06:31:28;;;;;;;19.73;10.60;;;2.80;99.90;;;;;;4920698;29;20436;-80
2023/03/08 06:33:55;;;;;;;21.00;10.50;;;2.90;99.90;;;;;;4921726;29;20468;-79
2023/03/08 06:36:22;;;;;;;23.00;14.87;;;3.00;99.90;;;;;;4925596;29;20464;-80
2023/03/08 06:38:50;;;;;;;20.43;11.13;;;3.30;99.90;;;;;;4920732;29;20503;-89
2023/03/08 06:41:19;;;;;;;20.60;9.97;;;3.40;99.90;;;;;;4929760;29;20532;-87
2023/03/08 06:43:46;;;;;;;17.67;11.07;;;3.50;99.90;;;;;;4932647;29;20452;-87
2023/03/08 06:46:15;;;;;;;18.10;11.07;;;3.60;99.90;;;;;;4935229;29;20551;-90
2023/03/08 06:48:45;;;;;;;22.37;11.30;;;3.50;99.90;;;;;;4938227;29;20440;-86
2023/03/08 06:51:12;;;;;;;24.80;12.43;;;3.50;99.90;;;;;;4925535;29;20458;-86
2023/03/08 06:53:38;;;;;;;17.47;11.37;;;3.60;99.90;;;;;;4923218;29;20563;-85
2023/03/08 06:56:06;;;;;;;21.80;12.23;;;3.40;99.90;;;;;;4923598;29;20451;-89
2023/03/08 06:58:34;;;;;;;22.40;12.47;;;3.00;99.90;;;;;;4929003;29;21045;-82
2023/03/08 07:01:03;;;;;;;21.27;12.10;;;3.00;99.90;;;;;;4945978;29;20536;-84
2023/03/08 07:03:30;;;;;;;15.10;9.90;;;3.00;99.90;;;;;;4933629;29;20468;-86
2023/03/08 07:06:00;;;;;;;26.73;14.20;;;3.10;99.90;;;;;;4931210;29;20478;-86
2023/03/08 07:08:26;;;;;;;23.77;12.30;;;3.10;99.90;;;;;;4931796;29;20905;-86
2023/03/08 07:10:53;;;;;;;18.23;11.83;;;3.20;99.90;;;;;;4930241;29;20849;-89
2023/03/08 07:13:22;;;;;;;26.60;12.33;;;3.40;99.90;;;;;;4931008;29;20543;-86
2023/03/08 07:15:49;;;;;;;23.03;12.30;;;3.50;99.90;;;;;;4926667;29;20534;-88
2023/03/08 07:18:16;;;;;;;17.97;11.90;;;3.60;99.90;;;;;;4935907;29;20524;-87
2023/03/08 07:20:43;;;;;;;20.07;11.20;;;3.70;99.90;;;;;;4940770;29;20476;-87
2023/03/08 07:23:11;;;;;;;20.07;12.63;;;3.60;99.90;;;;;;4931574;29;20574;-84
2023/03/08 07:25:39;;;;;;;15.80;10.80;;;3.60;99.90;;;;;;4939804;29;20466;-84
2023/03/08 07:28:06;;;;;;;24.20;11.73;;;3.60;99.90;;;;;;4948965;29;20974;-84
2023/03/08 07:30:33;;;;;;;22.30;11.07;;;3.80;99.90;;;;;;4950396;29;20459;-79
2023/03/08 07:33:00;;;;;;;24.37;11.87;;;4.10;99.90;;;;;;4942107;29;20475;-83
2023/03/08 07:35:27;;;;;;;18.10;11.47;;;4.10;99.90;;;;;;4939867;28;20521;-83
2023/03/08 07:37:54;;;;;;;18.10;12.10;;;4.00;99.90;;;;;;4951166;29;20961;-86
2023/03/08 07:40:22;;;;;;;26.17;13.10;;;4.10;99.90;;;;;;4953311;29;20494;-83
2023/03/08 07:42:49;;;;;;;24.93;11.33;;;4.30;99.90;;;;;;4954478;29;20474;-76
2023/03/08 07:45:17;;;;;;;17.40;11.27;;;4.10;99.90;;;;;;4952502;29;20739;-76
2023/03/08 07:47:43;;;;;;;18.63;12.07;;;4.10;99.90;;;;;;4952584;29;20534;-81
2023/03/08 07:50:11;;;;;;;18.03;11.60;;;4.30;99.90;;;;;;4952330;29;20549;-79
2023/03/08 07:52:38;;;;;;;22.63;13.37;;;4.50;99.90;;;;;;4952888;29;20486;-77
2023/03/08 07:55:06;;;;;;;19.30;12.43;;;4.60;99.90;;;;;;4952566;29;20853;-78
2023/03/08 07:57:34;;;;;;;23.07;11.13;;;4.80;99.90;;;;;;4952132;29;20961;-81
2023/03/08 08:00:01;;;;;;;14.57;11.17;;;5.00;99.90;;;;;;4952358;29;20502;-80
2023/03/08 08:02:28;;;;;;;18.43;12.90;;;5.00;99.90;;;;;;4952197;29;20793;-80
2023/03/08 08:04:54;;;;;;;18.77;10.40;;;4.80;99.90;;;;;;4952514;29;20442;-80
2023/03/08 08:07:21;;;;;;;13.47;9.50;;;4.80;99.90;;;;;;4951900;29;20451;-81
2023/03/08 08:09:48;;;;;;;16.50;10.27;;;5.20;99.90;;;;;;4952426;29;20461;-77
2023/03/08 08:12:15;;;;;;;21.53;10.83;;;5.60;99.90;;;;;;4952187;29;20458;-77
2023/03/08 08:14:43;;;;;;;18.10;12.17;;;5.70;99.90;;;;;;4951668;29;20482;-79
2023/03/08 08:17:10;;;;;;;24.07;11.27;;;5.90;99.90;;;;;;4951426;29;20477;-81
2023/03/08 08:19:37;;;;;;;21.33;10.03;;;6.00;99.90;;;;;;4952134;29;20501;-78
2023/03/08 08:22:04;;;;;;;20.67;12.00;;;6.10;99.90;;;;;;4951580;29;20466;-78
2023/03/08 08:24:32;;;;;;;18.57;9.27;;;6.40;99.90;;;;;;4953028;29;20863;-79
2023/03/08 08:26:59;;;;;;;17.23;11.70;;;6.40;99.90;;;;;;4953443;29;20526;-80
2023/03/08 08:29:26;;;;;;;15.00;9.63;;;6.20;99.90;;;;;;4954541;29;20539;-79
2023/03/08 08:31:55;;;;;;;17.80;11.57;;;6.20;99.90;;;;;;4954918;29;20833;-81
2023/03/08 08:34:22;;;;;;;15.30;9.47;;;6.40;99.90;;;;;;4956630;29;20471;-84
2023/03/08 08:36:49;;;;;;;17.60;10.97;;;6.20;99.90;;;;;;4960225;29;20447;-75
2023/03/08 08:39:16;;;;;;;205.10;113.63;;;5.90;99.90;;;;;;4953321;29;20526;-77
2023/03/08 08:41:42;;;;;;;14.70;10.13;;;6.00;99.90;;;;;;4953020;29;20587;-80
2023/03/08 08:44:09;;;;;;;13.13;9.43;;;6.10;99.90;;;;;;4951984;29;20459;-78
2023/03/08 08:46:37;;;;;;;15.67;10.20;;;6.10;99.90;;;;;;4950853;28;20543;-78
2023/03/08 08:49:05;;;;;;;16.20;9.53;;;6.20;99.90;;;;;;4951245;29;20454;-80
2023/03/08 08:51:32;;;;;;;20.47;10.70;;;6.20;99.90;;;;;;4951344;29;20474;-78
2023/03/08 08:53:59;;;;;;;14.67;9.40;;;6.20;99.90;;;;;;4951664;29;20459;-78
2023/03/08 08:56:28;;;;;;;16.03;10.67;;;6.10;99.90;;;;;;4950668;29;20466;-86
2023/03/08 08:58:55;;;;;;;21.00;8.90;;;6.20;99.90;;;;;;4953067;29;20493;-79
2023/03/08 09:01:23;;;;;;;16.00;9.40;;;6.20;99.90;;;;;;4953993;29;21028;-81
2023/03/08 09:03:51;;;;;;;15.70;10.30;;;6.30;99.90;;;;;;4957541;29;20949;-82
2023/03/08 09:06:20;;;;;;;16.30;10.50;;;6.30;99.90;;;;;;4951806;29;20475;-78
2023/03/08 09:08:50;;;;;;;14.70;8.53;;;6.40;99.90;;;;;;4953193;29;20458;-76
2023/03/08 09:11:17;;;;;;;15.37;10.37;;;6.40;99.90;;;;;;4951356;29;20491;-80
2023/03/08 09:13:44;;;;;;;15.37;9.13;;;6.30;99.90;;;;;;4952534;29;20546;-77
2023/03/08 09:16:17;;;;;;;14.33;7.17;;;6.40;99.90;;;;;;4950619;29;20462;-75
2023/03/08 09:18:44;;;;;;;14.67;9.47;;;6.50;99.90;;;;;;4951226;29;20497;-74
2023/03/08 09:21:11;;;;;;;17.17;9.93;;;6.50;99.90;;;;;;4951552;29;20493;-80
2023/03/08 09:23:39;;;;;;;10.20;7.80;;;6.40;99.90;;;;;;4951833;29;20616;-85
2023/03/08 09:26:06;;;;;;;18.40;9.33;;;6.50;99.90;;;;;;4958146;29;20454;-88
2023/03/08 09:28:33;;;;;;;19.13;10.60;;;6.60;99.90;;;;;;4956021;29;20459;-84
2023/03/08 09:31:01;;;;;;;13.10;8.70;;;6.70;99.90;;;;;;4956456;29;20473;-79
2023/03/08 09:33:28;;;;;;;17.60;10.47;;;6.80;99.90;;;;;;4957656;29;21052;-86
2023/03/08 09:35:56;;;;;;;15.37;9.43;;;6.40;99.90;;;;;;4935438;29;20456;-77
2023/03/08 09:38:23;;;;;;;11.43;7.70;;;6.60;99.90;;;;;;4943715;29;20542;-79
2023/03/08 09:41:03;;;;;;;21.57;10.23;;;6.70;99.90;;;;;;4951884;29;20453;-77
2023/03/08 09:43:43;;;;;;;20.40;12.00;;;6.80;99.90;;;;;;4951853;29;20455;-80
2023/03/08 09:46:14;;;;;;;19.37;11.10;;;6.60;99.90;;;;;;4942190;29;20499;-78
2023/03/08 09:48:43;;;;;;;22.13;10.70;;;6.80;99.90;;;;;;4932151;29;20613;-79
2023/03/08 09:51:12;;;;;;;20.40;11.17;;;7.00;99.90;;;;;;4931756;29;20456;-81
2023/03/08 09:53:42;;;;;;;20.73;11.60;;;6.70;99.90;;;;;;4942393;29;20471;-81
2023/03/08 09:56:19;;;;;;;19.17;11.20;;;7.00;99.90;;;;;;4950471;29;20896;-78
2023/03/08 09:58:50;;;;;;;19.33;11.90;;;7.20;99.90;;;;;;4950719;29;20494;-76
2023/03/08 10:01:30;;;;;;;20.40;12.70;;;7.30;99.90;;;;;;4951015;29;20467;-79
2023/03/08 10:04:15;;;;;;;18.97;10.27;;;7.40;99.90;;;;;;4950135;29;20474;-79
2023/03/08 10:06:49;;;;;;;13.87;9.77;;;7.60;99.90;;;;;;4950764;29;20458;-78
2023/03/08 10:09:26;;;;;;;19.60;11.47;;;7.70;99.90;;;;;;4949662;29;20463;-77
2023/03/08 10:12:03;;;;;;;19.80;10.27;;;7.90;99.90;;;;;;4951260;29;20489;-78
2023/03/08 10:14:32;;;;;;;17.20;10.87;;;8.00;99.90;;;;;;4950614;29;20458;-79
2023/03/08 10:17:04;;;;;;;21.70;10.83;;;7.90;99.90;;;;;;4950306;29;20470;-79
2023/03/08 10:19:36;;;;;;;18.37;11.07;;;7.80;99.90;;;;;;4950339;29;20498;-78
2023/03/08 10:22:08;;;;;;;20.80;10.90;;;7.60;99.90;;;;;;4949783;29;20486;-80
2023/03/08 10:24:42;;;;;;;18.80;10.70;;;7.50;99.90;;;;;;4949701;29;20453;-77
2023/03/08 10:27:18;;;;;;;15.10;10.00;;;7.40;99.90;;;;;;4950021;29;20594;-93
2023/03/08 10:29:49;;;;;;;20.03;11.63;;;7.50;99.90;;;;;;4952287;28;20450;-88
2023/03/08 10:32:16;;;;;;;19.83;10.60;;;7.60;99.90;;;;;;4947822;28;20830;-77
2023/03/08 10:34:43;;;;;;;18.00;11.23;;;7.70;99.90;;;;;;4949267;29;20443;-79
2023/03/08 10:37:10;;;;;;;15.57;11.20;;;7.60;99.90;;;;;;4947610;29;20483;-77
2023/03/08 10:39:38;;;;;;;23.37;13.60;;;7.60;99.90;;;;;;4949379;28;20993;-79
2023/03/08 10:42:14;;;;;;;16.00;11.77;;;7.40;99.90;;;;;;4949303;28;20827;-79
2023/03/08 10:44:53;;;;;;;22.03;12.00;;;7.20;99.90;;;;;;4948082;28;20542;-78
2023/03/08 10:47:23;;;;;;;15.60;10.93;;;7.10;99.90;;;;;;4948063;29;20454;-81
2023/03/08 10:50:02;;;;;;;18.80;11.93;;;6.70;99.90;;;;;;4950080;29;20564;-80
2023/03/08 10:52:29;;;;;;;18.73;11.57;;;7.10;99.90;;;;;;4941828;29;20996;-78
2023/03/08 10:55:04;;;;;;;18.07;10.93;;;7.30;99.90;;;;;;4949301;28;20458;-79
2023/03/08 10:57:32;;;;;;;20.87;12.57;;;7.60;99.90;;;;;;4949419;28;20451;-80
2023/03/08 11:00:11;;;;;;;19.50;13.33;;;7.70;99.90;;;;;;4944332;28;21024;-79
2023/03/08 11:02:38;;;;;;;17.43;12.47;;;7.50;99.90;;;;;;4949856;29;20834;-77
2023/03/08 11:05:18;;;;;;;18.00;11.53;;;7.60;99.90;;;;;;4940381;29;20527;-79
2023/03/08 11:07:51;;;;;;;22.70;13.57;;;7.50;99.90;;;;;;4947642;29;20447;-79
2023/03/08 11:10:22;;;;;;;19.40;11.13;;;7.40;99.90;;;;;;4951779;28;20461;-80
2023/03/08 11:13:01;;;;;;;14.53;8.90;;;7.30;99.90;;;;;;4953554;29;21022;-79
2023/03/08 11:15:33;;;;;;;18.33;10.37;;;7.20;99.90;;;;;;4952942;29;20458;-80
2023/03/08 11:18:04;;;;;;;19.27;12.30;;;6.80;99.90;;;;;;4952941;29;20987;-81
2023/03/08 11:20:40;;;;;;;14.83;10.07;;;6.80;99.90;;;;;;4953078;28;20482;-82
2023/03/08 11:23:17;;;;;;;11.10;6.40;;;6.80;99.90;;;;;;4955628;28;20641;-80
2023/03/08 11:25:46;;;;;;;8.97;5.90;;;7.00;99.90;;;;;;4954638;28;20549;-79
2023/03/08 11:28:25;;;;;;;7.40;4.87;;;7.00;99.90;;;;;;4966462;29;20489;-77
2023/03/08 11:31:06;;;;;;;8.80;4.83;;;6.80;99.90;;;;;;4962361;29;20447;-82
2023/03/08 11:33:56;;;;;;;7.20;4.60;;;6.80;99.90;;;;;;4957168;29;20545;-82
2023/03/08 11:36:29;;;;;;;6.93;3.73;;;6.90;99.90;;;;;;4954879;29;20461;-79
2023/03/08 11:39:02;;;;;;;9.83;5.27;;;6.80;99.90;;;;;;4953705;29;20462;-78
2023/03/08 11:41:38;;;;;;;9.37;5.43;;;6.70;99.90;;;;;;4953426;29;20451;-80
2023/03/08 11:44:34;;;;;;;9.63;5.10;;;6.70;99.90;;;;;;4952215;29;20561;-81
2023/03/08 11:47:42;;;;;;;8.47;5.60;;;7.00;99.90;;;;;;4953238;29;20461;-80
2023/03/08 11:50:19;;;;;;;7.43;5.37;;;7.10;99.90;;;;;;4953035;29;20545;-79
2023/03/08 11:52:59;;;;;;;12.60;6.47;;;7.30;99.90;;;;;;4952965;29;20949;-79
2023/03/08 11:55:39;;;;;;;10.73;6.60;;;7.40;99.90;;;;;;4953849;29;20437;-79
2023/03/08 11:58:13;;;;;;;13.43;7.13;;;7.40;99.90;;;;;;4953197;29;20447;-80
2023/03/08 12:00:42;;;;;;;10.23;6.10;;;7.40;99.90;;;;;;4951459;29;20577;-79
2023/03/08 12:03:14;;;;;;;8.00;6.43;;;7.30;99.90;;;;;;4952588;29;20439;-79
2023/03/08 12:05:44;;;;;;;14.90;6.90;;;7.20;99.90;;;;;;4952688;29;20447;-80
2023/03/08 12:08:17;;;;;;;8.30;6.30;;;7.40;99.90;;;;;;4952223;29;20465;-79
2023/03/08 12:10:50;;;;;;;12.23;6.43;;;7.70;99.90;;;;;;4950087;29;20451;-79
2023/03/08 12:13:21;;;;;;;10.30;6.57;;;7.90;99.90;;;;;;4943994;29;20469;-79
2023/03/08 12:15:53;;;;;;;10.10;6.73;;;7.90;99.90;;;;;;4953685;29;20471;-79
2023/03/08 12:18:28;;;;;;;9.87;6.40;;;7.90;99.90;;;;;;4953329;29;20718;-80
2023/03/08 12:21:05;;;;;;;9.80;6.90;;;7.60;99.90;;;;;;4951007;28;20494;-81
2023/03/08 12:23:40;;;;;;;8.33;5.67;;;7.70;99.90;;;;;;4952284;29;20984;-71
2023/03/08 12:26:13;;;;;;;13.30;6.43;;;7.70;99.90;;;;;;4952235;29;20438;-78
2023/03/08 12:28:46;;;;;;;7.00;5.00;;;8.00;99.90;;;;;;4951809;29;20454;-76
2023/03/08 12:31:24;;;;;;;7.43;5.10;;;8.10;99.90;;;;;;4954527;29;20450;-91
2023/03/08 12:33:53;;;;;;;9.83;5.93;;;8.30;99.90;;;;;;4946258;29;20470;-89
2023/03/08 12:36:22;;;;;;;10.10;5.50;;;8.50;99.90;;;;;;4944911;29;20545;-92
2023/03/08 12:38:55;;;;;;;8.90;5.00;;;8.70;99.90;;;;;;4944922;29;20456;-86
2023/03/08 12:41:25;;;;;;;6.70;4.43;;;8.90;99.90;;;;;;4958088;29;20577;-90
2023/03/08 12:44:00;;;;;;;7.63;4.07;;;9.10;99.90;;;;;;4964519;29;20479;-88
2023/03/08 12:46:27;;;;;;;6.17;4.90;;;9.30;99.90;;;;;;4943823;29;20501;-89
2023/03/08 12:48:56;;;;;;;5.47;4.80;;;9.30;99.90;;;;;;4940452;29;20471;-88
2023/03/08 12:51:30;;;;;;;8.73;4.60;;;9.40;99.90;;;;;;4944686;29;20454;-87
2023/03/08 12:54:00;;;;;;;6.97;4.80;;;9.50;99.90;;;;;;4944860;29;20470;-90
2023/03/08 12:56:30;;;;;;;7.10;4.50;;;9.50;99.90;;;;;;4945424;29;20448;-90
2023/03/08 12:58:59;;;;;;;8.33;4.67;;;9.50;99.90;;;;;;4941358;29;20440;-84
2023/03/08 13:01:35;;;;;;;10.17;3.63;;;9.50;99.90;;;;;;4939836;29;20505;-84
2023/03/08 13:04:04;;;;;;;4.33;3.93;;;9.60;99.90;;;;;;4941225;29;20923;-77
2023/03/08 13:07:05;;;;;;;7.77;3.63;;;9.60;99.90;;;;;;4943078;29;20473;-86
2023/03/08 13:09:36;;;;;;;6.33;2.93;;;9.80;99.90;;;;;;4912920;29;20550;-89
2023/03/08 13:12:20;;;;;;;5.10;2.47;;;10.00;99.90;;;;;;4944625;29;20937;-87
2023/03/08 13:14:59;;;;;;;4.27;2.27;;;10.20;99.90;;;;;;4950736;28;20774;-89
2023/03/08 13:17:34;;;;;;;2.20;1.60;;;10.40;99.90;;;;;;4948212;29;20976;-86
2023/03/08 13:20:11;;;;;;;4.00;1.70;;;10.40;99.90;;;;;;4952797;29;20507;-83
2023/03/08 13:22:47;;;;;;;4.90;1.50;;;10.70;99.90;;;;;;4935760;28;21161;-74
2023/03/08 13:25:26;;;;;;;3.53;1.23;;;10.90;99.90;;;;;;4939815;29;20443;-75
2023/03/08 13:27:58;;;;;;;1.80;1.37;;;11.00;99.90;;;;;;4941723;29;20452;-74
2023/03/08 13:30:26;;;;;;;2.17;1.33;;;;;;;;;;4938453;29;20439;-83
2023/03/08 13:32:53;;;;;;;1.60;1.13;;;11.60;99.90;;;;;;4940519;29;20443;-75
2023/03/08 13:35:21;;;;;;;6.40;1.70;;;12.20;99.90;;;;;;4940233;29;20539;-75
2023/03/08 13:37:57;;;;;;;2.73;2.07;;;12.60;99.90;;;;;;4943280;29;20939;-81
2023/03/08 13:40:26;;;;;;;1.60;1.40;;;12.90;99.90;;;;;;4950308;29;20486;-73
2023/03/08 13:42:54;;;;;;;3.90;1.27;;;13.00;99.90;;;;;;4946571;29;20447;-84
2023/03/08 13:45:21;;;;;;;4.10;1.53;;;12.20;99.90;;;;;;4941255;29;20464;-83
2023/03/08 13:47:48;;;;;;;2.20;1.33;;;12.00;99.90;;;;;;4942559;29;20468;-80
2023/03/08 13:50:24;;;;;;;1.33;1.23;;;12.00;99.90;;;;;;4948873;29;20455;-77
2023/03/08 13:52:51;;;;;;;2.27;1.10;;;12.50;99.90;;;;;;4950020;28;20458;-79
2023/03/08 13:55:20;;;;;;;2.20;1.13;;;11.90;99.90;;;;;;4951627;28;20474;-81
2023/03/08 13:57:51;;;;;;;1.40;1.30;;;11.70;99.90;;;;;;4948030;29;20462;-71
2023/03/08 14:00:25;;;;;;;5.70;1.30;;;11.60;99.90;;;;;;4947605;29;20581;-71
2023/03/08 14:02:52;;;;;;;6.17;1.30;;;11.90;99.90;;;;;;4949493;29;20438;-71
2023/03/08 14:05:23;;;;;;;4.10;1.30;;;12.00;99.90;;;;;;4950007;29;20455;-71
2023/03/08 14:07:58;;;;;;;1.50;1.40;;;11.70;99.90;;;;;;4951109;29;20574;-80
2023/03/08 14:10:31;;;;;;;7.70;1.63;;;11.50;99.90;;;;;;4949820;29;20439;-74
2023/03/08 14:12:58;;;;;;;2.97;1.50;;;11.50;99.90;;;;;;4949331;29;20461;-72
2023/03/08 14:15:25;;;;;;;1.67;1.43;;;11.40;99.90;;;;;;4949677;29;20482;-71
2023/03/08 14:17:52;;;;;;;1.67;1.10;;;11.40;99.90;;;;;;4951357;29;20467;-88
2023/03/08 14:20:23;;;;;;;1.33;1.20;;;11.30;99.90;;;;;;4958710;29;20574;-87
2023/03/08 14:22:51;;;;;;;3.00;1.53;;;11.40;99.90;;;;;;4968421;28;20623;-88
2023/03/08 14:25:25;;;;;;;2.13;1.20;;;11.30;99.90;;;;;;4977741;28;20481;-86
2023/03/08 14:27:52;;;;;;;1.67;1.10;;;11.40;99.90;;;;;;4980603;28;20447;-88
2023/03/08 14:30:21;;;;;;;2.40;2.20;;;11.30;99.90;;;;;;4959886;28;20510;-88
2023/03/08 14:33:01;;;;;;;1.27;1.17;;;11.50;99.90;;;;;;4963667;29;21077;-89
2023/03/08 14:35:31;;;;;;;1.57;1.30;;;11.40;99.90;;;;;;4959242;29;20553;-88
2023/03/08 14:37:58;;;;;;;2.40;1.13;;;11.50;99.90;;;;;;4947879;29;20554;-87
2023/03/08 14:40:31;;;;;;;2.60;1.47;;;11.40;99.90;;;;;;4949300;29;20507;-78
2023/03/08 14:43:01;;;;;;;1.37;1.13;;;11.40;99.90;;;;;;4953177;28;20463;-80
2023/03/08 14:45:33;;;;;;;3.20;1.30;;;11.50;99.90;;;;;;4954778;29;20554;-79
2023/03/08 14:48:01;;;;;;;3.73;1.33;;;11.60;99.90;;;;;;4951501;29;20443;-77
2023/03/08 14:50:31;;;;;;;2.13;1.30;;;11.60;99.90;;;;;;4950432;29;20490;-78
2023/03/08 14:53:01;;;;;;;4.20;1.67;;;11.70;99.90;;;;;;4941046;29;20482;-77
2023/03/08 14:55:30;;;;;;;1.97;1.30;;;11.70;99.90;;;;;;4945378;29;20907;-77
2023/03/08 14:58:00;;;;;;;1.37;1.27;;;11.70;99.90;;;;;;4941197;29;20533;-80
2023/03/08 15:00:29;;;;;;;3.63;2.00;;;11.70;99.90;;;;;;4947349;29;20491;-77
2023/03/08 15:02:56;;;;;;;2.83;1.00;;;11.80;99.90;;;;;;4947726;29;20459;-82
2023/03/08 15:05:24;;;;;;;1.33;1.23;;;11.80;99.90;;;;;;4943591;29;20978;-86
2023/03/08 15:07:53;;;;;;;2.17;1.27;;;11.90;99.90;;;;;;4932978;29;20489;-89
2023/03/08 15:10:26;;;;;;;9.63;2.07;;;12.00;99.90;;;;;;4946047;29;20470;-90
2023/03/08 15:12:53;;;;;;;1.67;1.47;;;12.10;99.90;;;;;;4947203;29;20463;-81
2023/03/08 15:15:20;;;;;;;2.27;1.20;;;12.30;99.90;;;;;;4946660;29;20924;-87
2023/03/08 15:17:47;;;;;;;19.63;13.73;;;12.10;99.90;;;;;;4940758;29;20483;-76
2023/03/08 15:20:15;;;;;;;2.17;1.30;;;12.10;99.90;;;;;;4937270;29;20888;-79
2023/03/08 15:22:45;;;;;;;1.90;1.40;;;12.00;99.90;;;;;;4945659;28;21022;-85
2023/03/08 15:25:22;;;;;;;2.63;1.40;;;12.10;99.90;;;;;;4945999;28;20510;-82
2023/03/08 15:27:49;;;;;;;2.07;1.50;;;12.10;99.90;;;;;;4944964;29;20794;-83
2023/03/08 15:30:18;;;;;;;2.80;1.40;;;12.20;99.90;;;;;;4938648;29;20469;-84
2023/03/08 15:32:45;;;;;;;2.80;1.37;;;12.10;99.90;;;;;;4934667;29;20470;-80
2023/03/08 15:35:12;;;;;;;1.83;1.40;;;12.10;99.90;;;;;;4931252;29;20862;-74
2023/03/08 15:37:39;;;;;;;1.67;1.40;;;12.50;99.90;;;;;;4936311;29;21015;-75
2023/03/08 15:40:11;;;;;;;2.00;1.10;;;12.10;99.90;;;;;;4938813;29;20837;-75
2023/03/08 15:42:39;;;;;;;3.60;1.60;;;12.20;99.90;;;;;;4936507;29;20594;-74
2023/03/08 15:45:06;;;;;;;1.93;1.57;;;12.30;99.90;;;;;;4937298;29;20971;-74
2023/03/08 15:47:33;;;;;;;1.47;1.17;;;12.40;99.90;;;;;;4937031;29;20783;-74
2023/03/08 15:50:00;;;;;;;2.83;1.73;;;12.70;99.90;;;;;;4937849;29;20469;-74
2023/03/08 15:52:27;;;;;;;8.40;1.40;;;13.00;99.90;;;;;;4939047;29;20491;-73
2023/03/08 15:54:54;;;;;;;1.83;1.50;;;13.60;99.90;;;;;;4940138;28;20463;-74
2023/03/08 15:57:21;;;;;;;2.47;1.40;;;13.40;99.90;;;;;;4941337;29;20435;-75
2023/03/08 15:59:50;;;;;;;5.93;1.70;;;13.10;99.90;;;;;;4945037;29;20470;-78
2023/03/08 16:02:19;;;;;;;5.73;1.73;;;13.00;99.90;;;;;;4942577;29;20501;-81
2023/03/08 16:04:47;;;;;;;3.53;1.40;;;12.90;99.90;;;;;;4942757;29;20464;-80
2023/03/08 16:07:15;;;;;;;2.00;1.43;;;13.10;99.90;;;;;;4942629;29;20459;-80
2023/03/08 16:09:42;;;;;;;1.50;1.30;;;13.00;99.90;;;;;;4939137;29;20974;-78
2023/03/08 16:12:09;;;;;;;3.90;2.30;;;12.90;99.90;;;;;;4940218;28;20555;-79
2023/03/08 16:14:36;;;;;;;2.67;1.70;;;12.60;99.90;;;;;;4941239;29;20954;-76
2023/03/08 16:17:05;;;;;;;1.90;1.70;;;12.40;99.90;;;;;;4939272;29;20471;-79
2023/03/08 16:19:32;;;;;;;1.87;1.63;;;12.20;99.90;;;;;;4939008;29;20471;-77
2023/03/08 16:21:59;;;;;;;3.00;1.70;;;12.00;99.90;;;;;;4938770;29;20819;-79
2023/03/08 16:24:27;;;;;;;3.20;1.60;;;11.80;99.90;;;;;;4940913;29;20975;-79
2023/03/08 16:26:54;;;;;;;2.97;1.73;;;11.80;99.90;;;;;;4940385;29;20804;-78
2023/03/08 16:29:21;;;;;;;2.43;2.10;;;11.70;99.90;;;;;;4948980;29;21049;-78
2023/03/08 16:31:48;;;;;;;2.00;1.63;;;11.60;99.90;;;;;;4942652;29;20509;-81
2023/03/08 16:34:17;;;;;;;2.97;1.47;;;11.60;99.90;;;;;;4940346;29;21004;-78
2023/03/08 16:36:43;;;;;;;3.67;2.03;;;11.70;99.90;;;;;;4936324;29;20459;-79
2023/03/08 16:39:10;;;;;;;3.33;1.90;;;11.50;99.90;;;;;;4937873;29;20443;-80
2023/03/08 16:41:39;;;;;;;2.20;1.57;;;11.40;99.90;;;;;;4940166;29;21142;-79
2023/03/08 16:44:07;;;;;;;3.97;2.70;;;11.40;99.90;;;;;;4938496;29;20447;-79
2023/03/08 16:46:35;;;;;;;2.27;1.80;;;11.40;99.90;;;;;;4933522;29;20476;-79
2023/03/08 16:49:02;;;;;;;2.20;2.00;;;11.40;99.90;;;;;;4932479;29;20471;-78
2023/03/08 16:51:30;;;;;;;3.20;1.53;;;11.40;99.90;;;;;;4948796;29;20843;-81
2023/03/08 16:53:57;;;;;;;4.30;2.30;;;11.20;99.90;;;;;;4949663;29;20447;-78
2023/03/08 16:56:27;;;;;;;2.37;1.97;;;11.20;99.90;;;;;;4951446;29;20463;-81
2023/03/08 16:58:57;;;;;;;3.93;1.93;;;11.20;99.90;;;;;;4949159;29;20965;-82
2023/03/08 17:01:24;;;;;;;1.90;1.80;;;11.20;99.90;;;;;;4949046;29;21003;-79
2023/03/08 17:03:52;;;;;;;3.03;1.60;;;11.40;99.90;;;;;;4939244;29;20462;-77
2023/03/08 17:06:21;;;;;;;2.63;1.93;;;11.10;99.90;;;;;;4944387;28;20478;-79
2023/03/08 17:08:49;;;;;;;2.27;2.00;;;11.00;99.90;;;;;;4938493;29;20448;-79
2023/03/08 17:11:17;;;;;;;2.70;1.70;;;11.10;99.90;;;;;;4930236;29;20448;-82
2023/03/08 17:13:46;;;;;;;3.87;2.00;;;11.10;99.90;;;;;;4948421;29;20451;-77
2023/03/08 17:16:13;;;;;;;2.27;1.57;;;11.00;99.90;;;;;;4964767;28;20455;-85
2023/03/08 17:18:40;;;;;;;1.70;1.50;;;11.00;99.90;;;;;;4948702;29;21055;-83
2023/03/08 17:21:08;;;;;;;2.10;1.90;;;11.10;99.90;;;;;;4949645;29;20494;-81
2023/03/08 17:23:35;;;;;;;3.00;1.80;;;11.10;99.90;;;;;;4949573;29;20471;-80
2023/03/08 17:26:05;;;;;;;2.73;1.90;;;11.00;99.90;;;;;;4948973;29;20857;-81
2023/03/08 17:28:32;;;;;;;2.20;2.00;;;10.90;99.90;;;;;;4950120;29;20537;-78
2023/03/08 17:30:59;;;;;;;3.57;1.93;;;10.90;99.90;;;;;;4955237;29;20463;-81
2023/03/08 17:33:26;;;;;;;4.43;2.07;;;10.80;99.90;;;;;;4950772;29;20518;-82
2023/03/08 17:35:54;;;;;;;3.10;2.30;;;10.80;99.90;;;;;;4947659;29;20956;-82
2023/03/08 17:38:21;;;;;;;2.03;1.83;;;10.80;99.90;;;;;;4948365;29;20459;-81